sensor_id;sensor_type;location;lat;lon;timestamp;P1;durP1;ratioP1;P2;durP2;ratioP2
13584;SDS011;6863;48.402;9.994;2024-03-08T00:00:14;36.97;;;25.93;;
13584;SDS011;6863;48.402;9.994;2024-03-08T00:02:43;37.93;;;24.73;;
13584;SDS011;6863;48.402;9.994;2024-03-08T00:05:10;39.87;;;26.47;;
13584;SDS011;6863;48.402;9.994;2024-03-08T00:07:40;37.73;;;24.97;;
13584;SDS011;6863;48.402;9.994;2024-03-08T00:10:07;35.33;;;24.33;;
13584;SDS011;6863;48.402;9.994;2024-03-08T00:12:36;42.80;;;26.73;;
13584;SDS011;6863;48.402;9.994;2024-03-08T00:15:06;39.47;;;25.83;;
13584;SDS011;6863;48.402;9.994;2024-03-08T00:17:36;39.77;;;23.43;;
13584;SDS011;6863;48.402;9.994;2024-03-08T00:20:03;40.93;;;26.47;;
13584;SDS011;6863;48.402;9.994;2024-03-08T00:22:33;40.20;;;25.53;;
13584;SDS011;6863;48.402;9.994;2024-03-08T00:24:59;38.47;;;25.10;;
13584;SDS011;6863;48.402;9.994;2024-03-08T00:27:24;40.33;;;25.17;;
13584;SDS011;6863;48.402;9.994;2024-03-08T00:29:50;40.83;;;26.40;;
13584;SDS011;6863;48.402;9.994;2024-03-08T00:32:15;40.57;;;25.83;;
13584;SDS011;6863;48.402;9.994;2024-03-08T00:34:42;40.43;;;26.07;;
13584;SDS011;6863;48.402;9.994;2024-03-08T00:37:07;42.40;;;27.07;;
13584;SDS011;6863;48.402;9.994;2024-03-08T00:39:33;40.30;;;25.97;;
13584;SDS011;6863;48.402;9.994;2024-03-08T00:41:59;38.60;;;25.80;;
13584;SDS011;6863;48.402;9.994;2024-03-08T00:44:24;39.23;;;25.77;;
13584;SDS011;6863;48.402;9.994;2024-03-08T00:46:50;39.47;;;26.93;;
13584;SDS011;6863;48.402;9.994;2024-03-08T00:49:16;42.37;;;27.27;;
13584;SDS011;6863;48.402;9.994;2024-03-08T00:51:41;41.27;;;25.47;;
13584;SDS011;6863;48.402;9.994;2024-03-08T00:54:08;44.03;;;25.87;;
13584;SDS011;6863;48.402;9.994;2024-03-08T00:56:34;43.43;;;27.03;;
13584;SDS011;6863;48.402;9.994;2024-03-08T00:59:00;47.37;;;27.90;;
13584;SDS011;6863;48.402;9.994;2024-03-08T01:01:27;44.30;;;26.40;;
13584;SDS011;6863;48.402;9.994;2024-03-08T01:03:53;45.57;;;27.20;;
13584;SDS011;6863;48.402;9.994;2024-03-08T01:06:19;40.13;;;24.80;;
13584;SDS011;6863;48.402;9.994;2024-03-08T01:08:45;41.50;;;26.80;;
13584;SDS011;6863;48.402;9.994;2024-03-08T01:11:12;37.33;;;26.20;;
13584;SDS011;6863;48.402;9.994;2024-03-08T01:13:39;38.73;;;24.70;;
13584;SDS011;6863;48.402;9.994;2024-03-08T01:16:04;38.70;;;25.70;;
13584;SDS011;6863;48.402;9.994;2024-03-08T01:18:31;38.73;;;25.87;;
13584;SDS011;6863;48.402;9.994;2024-03-08T01:21:01;37.30;;;24.63;;
13584;SDS011;6863;48.402;9.994;2024-03-08T01:23:35;41.90;;;25.90;;
13584;SDS011;6863;48.402;9.994;2024-03-08T01:26:05;40.70;;;25.00;;
13584;SDS011;6863;48.402;9.994;2024-03-08T01:28:31;46.23;;;27.40;;
13584;SDS011;6863;48.402;9.994;2024-03-08T01:30:58;40.93;;;25.93;;
13584;SDS011;6863;48.402;9.994;2024-03-08T01:33:25;40.03;;;24.73;;
13584;SDS011;6863;48.402;9.994;2024-03-08T01:35:52;46.97;;;27.00;;
13584;SDS011;6863;48.402;9.994;2024-03-08T01:38:18;38.77;;;24.93;;
13584;SDS011;6863;48.402;9.994;2024-03-08T01:40:44;41.67;;;26.60;;
13584;SDS011;6863;48.402;9.994;2024-03-08T01:43:19;45.77;;;27.67;;
13584;SDS011;6863;48.402;9.994;2024-03-08T01:45:46;45.43;;;26.37;;
13584;SDS011;6863;48.402;9.994;2024-03-08T01:48:11;43.97;;;26.10;;
13584;SDS011;6863;48.402;9.994;2024-03-08T01:50:38;43.40;;;28.07;;
13584;SDS011;6863;48.402;9.994;2024-03-08T01:53:04;41.93;;;26.60;;
13584;SDS011;6863;48.402;9.994;2024-03-08T01:55:31;42.40;;;25.67;;
13584;SDS011;6863;48.402;9.994;2024-03-08T01:57:57;39.47;;;26.47;;
13584;SDS011;6863;48.402;9.994;2024-03-08T02:00:24;44.97;;;28.43;;
13584;SDS011;6863;48.402;9.994;2024-03-08T02:02:51;42.73;;;27.80;;
13584;SDS011;6863;48.402;9.994;2024-03-08T02:05:19;41.70;;;25.97;;
13584;SDS011;6863;48.402;9.994;2024-03-08T02:07:45;42.17;;;27.23;;
13584;SDS011;6863;48.402;9.994;2024-03-08T02:10:11;45.23;;;26.63;;
13584;SDS011;6863;48.402;9.994;2024-03-08T02:12:37;41.10;;;27.07;;
13584;SDS011;6863;48.402;9.994;2024-03-08T02:15:03;43.70;;;26.53;;
13584;SDS011;6863;48.402;9.994;2024-03-08T02:17:31;40.30;;;26.60;;
13584;SDS011;6863;48.402;9.994;2024-03-08T02:19:58;36.80;;;24.67;;
13584;SDS011;6863;48.402;9.994;2024-03-08T02:22:26;40.40;;;25.80;;
13584;SDS011;6863;48.402;9.994;2024-03-08T02:24:53;43.20;;;27.07;;
13584;SDS011;6863;48.402;9.994;2024-03-08T02:27:23;46.17;;;27.53;;
13584;SDS011;6863;48.402;9.994;2024-03-08T02:29:50;40.57;;;26.60;;
13584;SDS011;6863;48.402;9.994;2024-03-08T02:32:20;48.97;;;28.20;;
13584;SDS011;6863;48.402;9.994;2024-03-08T02:34:47;43.93;;;27.40;;
13584;SDS011;6863;48.402;9.994;2024-03-08T02:37:13;46.67;;;26.53;;
13584;SDS011;6863;48.402;9.994;2024-03-08T02:39:38;43.17;;;27.07;;
13584;SDS011;6863;48.402;9.994;2024-03-08T02:42:04;39.50;;;25.73;;
13584;SDS011;6863;48.402;9.994;2024-03-08T02:44:29;40.37;;;26.60;;
13584;SDS011;6863;48.402;9.994;2024-03-08T02:46:55;46.23;;;26.90;;
13584;SDS011;6863;48.402;9.994;2024-03-08T02:49:21;43.70;;;27.87;;
13584;SDS011;6863;48.402;9.994;2024-03-08T02:51:46;41.77;;;27.77;;
13584;SDS011;6863;48.402;9.994;2024-03-08T02:54:12;40.63;;;25.83;;
13584;SDS011;6863;48.402;9.994;2024-03-08T02:56:38;44.17;;;27.07;;
13584;SDS011;6863;48.402;9.994;2024-03-08T02:59:03;43.60;;;26.50;;
13584;SDS011;6863;48.402;9.994;2024-03-08T03:01:29;41.43;;;26.57;;
13584;SDS011;6863;48.402;9.994;2024-03-08T03:03:54;48.80;;;29.00;;
13584;SDS011;6863;48.402;9.994;2024-03-08T03:06:20;45.20;;;28.00;;
13584;SDS011;6863;48.402;9.994;2024-03-08T03:08:46;41.93;;;25.77;;
13584;SDS011;6863;48.402;9.994;2024-03-08T03:11:12;43.63;;;28.13;;
13584;SDS011;6863;48.402;9.994;2024-03-08T03:13:38;42.83;;;26.57;;
13584;SDS011;6863;48.402;9.994;2024-03-08T03:16:04;44.43;;;27.50;;
13584;SDS011;6863;48.402;9.994;2024-03-08T03:18:30;46.23;;;27.77;;
13584;SDS011;6863;48.402;9.994;2024-03-08T03:20:57;46.93;;;28.17;;
13584;SDS011;6863;48.402;9.994;2024-03-08T03:23:23;44.07;;;26.47;;
13584;SDS011;6863;48.402;9.994;2024-03-08T03:25:51;48.93;;;28.40;;
13584;SDS011;6863;48.402;9.994;2024-03-08T03:28:17;44.90;;;26.63;;
13584;SDS011;6863;48.402;9.994;2024-03-08T03:30:46;47.10;;;27.47;;
13584;SDS011;6863;48.402;9.994;2024-03-08T03:33:12;45.33;;;27.73;;
13584;SDS011;6863;48.402;9.994;2024-03-08T03:35:39;45.20;;;28.40;;
13584;SDS011;6863;48.402;9.994;2024-03-08T03:38:06;44.43;;;27.87;;
13584;SDS011;6863;48.402;9.994;2024-03-08T03:40:38;46.80;;;28.80;;
13584;SDS011;6863;48.402;9.994;2024-03-08T03:43:07;44.53;;;26.30;;
13584;SDS011;6863;48.402;9.994;2024-03-08T03:45:35;44.80;;;26.83;;
13584;SDS011;6863;48.402;9.994;2024-03-08T03:48:06;45.20;;;27.47;;
13584;SDS011;6863;48.402;9.994;2024-03-08T03:50:36;41.77;;;26.80;;
13584;SDS011;6863;48.402;9.994;2024-03-08T03:53:01;43.20;;;27.27;;
13584;SDS011;6863;48.402;9.994;2024-03-08T03:55:28;44.93;;;27.43;;
13584;SDS011;6863;48.402;9.994;2024-03-08T03:57:54;44.60;;;26.63;;
13584;SDS011;6863;48.402;9.994;2024-03-08T04:00:20;45.37;;;27.57;;
13584;SDS011;6863;48.402;9.994;2024-03-08T04:02:45;44.73;;;26.97;;
13584;SDS011;6863;48.402;9.994;2024-03-08T04:05:11;40.83;;;25.67;;
13584;SDS011;6863;48.402;9.994;2024-03-08T04:07:38;45.20;;;26.50;;
13584;SDS011;6863;48.402;9.994;2024-03-08T04:10:04;40.50;;;26.67;;
13584;SDS011;6863;48.402;9.994;2024-03-08T04:12:32;43.33;;;26.53;;
13584;SDS011;6863;48.402;9.994;2024-03-08T04:15:01;38.60;;;26.03;;
13584;SDS011;6863;48.402;9.994;2024-03-08T04:17:26;39.30;;;25.13;;
13584;SDS011;6863;48.402;9.994;2024-03-08T04:19:52;38.63;;;26.03;;
13584;SDS011;6863;48.402;9.994;2024-03-08T04:22:18;39.60;;;25.13;;
13584;SDS011;6863;48.402;9.994;2024-03-08T04:24:44;36.37;;;23.80;;
13584;SDS011;6863;48.402;9.994;2024-03-08T04:27:11;36.50;;;25.37;;
13584;SDS011;6863;48.402;9.994;2024-03-08T04:29:36;40.37;;;25.93;;
13584;SDS011;6863;48.402;9.994;2024-03-08T04:34:29;35.77;;;24.40;;
13584;SDS011;6863;48.402;9.994;2024-03-08T04:36:56;36.40;;;24.30;;
13584;SDS011;6863;48.402;9.994;2024-03-08T04:39:22;35.63;;;24.57;;
13584;SDS011;6863;48.402;9.994;2024-03-08T04:41:48;36.23;;;23.93;;
13584;SDS011;6863;48.402;9.994;2024-03-08T04:44:15;34.83;;;23.83;;
13584;SDS011;6863;48.402;9.994;2024-03-08T04:46:42;34.77;;;23.33;;
13584;SDS011;6863;48.402;9.994;2024-03-08T04:49:08;35.43;;;22.63;;
13584;SDS011;6863;48.402;9.994;2024-03-08T04:51:33;33.63;;;23.40;;
13584;SDS011;6863;48.402;9.994;2024-03-08T04:53:59;35.50;;;22.37;;
13584;SDS011;6863;48.402;9.994;2024-03-08T04:56:25;36.93;;;22.07;;
13584;SDS011;6863;48.402;9.994;2024-03-08T04:58:50;32.60;;;21.93;;
13584;SDS011;6863;48.402;9.994;2024-03-08T05:01:16;36.77;;;22.83;;
13584;SDS011;6863;48.402;9.994;2024-03-08T05:03:42;34.67;;;23.50;;
13584;SDS011;6863;48.402;9.994;2024-03-08T05:06:07;33.27;;;22.97;;
13584;SDS011;6863;48.402;9.994;2024-03-08T05:08:33;31.50;;;21.73;;
13584;SDS011;6863;48.402;9.994;2024-03-08T05:10:59;29.97;;;21.37;;
13584;SDS011;6863;48.402;9.994;2024-03-08T05:13:29;30.60;;;21.57;;
13584;SDS011;6863;48.402;9.994;2024-03-08T05:15:57;31.63;;;22.20;;
13584;SDS011;6863;48.402;9.994;2024-03-08T05:18:23;32.57;;;22.17;;
13584;SDS011;6863;48.402;9.994;2024-03-08T05:20:49;30.07;;;19.93;;
13584;SDS011;6863;48.402;9.994;2024-03-08T05:23:15;34.60;;;21.90;;
13584;SDS011;6863;48.402;9.994;2024-03-08T05:25:41;31.97;;;22.30;;
13584;SDS011;6863;48.402;9.994;2024-03-08T05:28:07;29.83;;;21.97;;
13584;SDS011;6863;48.402;9.994;2024-03-08T05:30:33;32.20;;;21.70;;
13584;SDS011;6863;48.402;9.994;2024-03-08T05:33:01;30.73;;;20.87;;
13584;SDS011;6863;48.402;9.994;2024-03-08T05:35:26;32.23;;;21.07;;
13584;SDS011;6863;48.402;9.994;2024-03-08T05:37:52;28.37;;;20.60;;
13584;SDS011;6863;48.402;9.994;2024-03-08T05:40:17;28.80;;;20.37;;
13584;SDS011;6863;48.402;9.994;2024-03-08T05:42:44;30.80;;;21.87;;
13584;SDS011;6863;48.402;9.994;2024-03-08T05:45:09;30.00;;;20.77;;
13584;SDS011;6863;48.402;9.994;2024-03-08T05:47:36;32.27;;;21.80;;
13584;SDS011;6863;48.402;9.994;2024-03-08T05:50:01;31.20;;;21.27;;
13584;SDS011;6863;48.402;9.994;2024-03-08T05:52:27;28.20;;;20.43;;
13584;SDS011;6863;48.402;9.994;2024-03-08T05:54:52;28.57;;;20.77;;
13584;SDS011;6863;48.402;9.994;2024-03-08T05:57:18;33.37;;;20.90;;
13584;SDS011;6863;48.402;9.994;2024-03-08T05:59:44;27.87;;;19.27;;
13584;SDS011;6863;48.402;9.994;2024-03-08T06:02:09;28.97;;;20.33;;
13584;SDS011;6863;48.402;9.994;2024-03-08T06:04:35;28.57;;;20.37;;
13584;SDS011;6863;48.402;9.994;2024-03-08T06:07:00;30.63;;;20.70;;
13584;SDS011;6863;48.402;9.994;2024-03-08T06:09:28;28.87;;;20.17;;
13584;SDS011;6863;48.402;9.994;2024-03-08T06:11:54;31.50;;;20.77;;
13584;SDS011;6863;48.402;9.994;2024-03-08T06:14:19;28.17;;;21.33;;
13584;SDS011;6863;48.402;9.994;2024-03-08T06:16:45;29.13;;;20.37;;
13584;SDS011;6863;48.402;9.994;2024-03-08T06:19:11;29.53;;;21.30;;
13584;SDS011;6863;48.402;9.994;2024-03-08T06:21:38;28.33;;;18.73;;
13584;SDS011;6863;48.402;9.994;2024-03-08T06:24:04;28.43;;;20.40;;
13584;SDS011;6863;48.402;9.994;2024-03-08T06:26:30;31.23;;;21.27;;
13584;SDS011;6863;48.402;9.994;2024-03-08T06:28:56;31.20;;;20.23;;
13584;SDS011;6863;48.402;9.994;2024-03-08T06:31:22;29.83;;;20.23;;
13584;SDS011;6863;48.402;9.994;2024-03-08T06:33:48;28.27;;;20.13;;
13584;SDS011;6863;48.402;9.994;2024-03-08T06:36:19;30.97;;;19.93;;
13584;SDS011;6863;48.402;9.994;2024-03-08T06:38:46;27.43;;;20.63;;
13584;SDS011;6863;48.402;9.994;2024-03-08T06:41:15;31.37;;;21.13;;
13584;SDS011;6863;48.402;9.994;2024-03-08T06:43:42;31.70;;;20.50;;
13584;SDS011;6863;48.402;9.994;2024-03-08T06:46:08;29.63;;;20.00;;
13584;SDS011;6863;48.402;9.994;2024-03-08T06:48:34;28.67;;;20.33;;
13584;SDS011;6863;48.402;9.994;2024-03-08T06:51:02;28.53;;;20.07;;
13584;SDS011;6863;48.402;9.994;2024-03-08T06:53:27;30.43;;;21.03;;
13584;SDS011;6863;48.402;9.994;2024-03-08T06:55:53;26.87;;;19.70;;
13584;SDS011;6863;48.402;9.994;2024-03-08T06:58:19;30.13;;;20.07;;
13584;SDS011;6863;48.402;9.994;2024-03-08T07:00:45;28.20;;;19.33;;
13584;SDS011;6863;48.402;9.994;2024-03-08T07:03:11;29.37;;;20.23;;
13584;SDS011;6863;48.402;9.994;2024-03-08T07:05:42;28.13;;;19.97;;
13584;SDS011;6863;48.402;9.994;2024-03-08T07:08:07;24.93;;;18.83;;
13584;SDS011;6863;48.402;9.994;2024-03-08T07:10:33;31.77;;;21.70;;
13584;SDS011;6863;48.402;9.994;2024-03-08T07:13:00;27.83;;;18.73;;
13584;SDS011;6863;48.402;9.994;2024-03-08T07:15:27;28.67;;;20.80;;
13584;SDS011;6863;48.402;9.994;2024-03-08T07:17:53;28.23;;;19.77;;
13584;SDS011;6863;48.402;9.994;2024-03-08T07:20:18;26.93;;;18.50;;
13584;SDS011;6863;48.402;9.994;2024-03-08T07:22:45;25.23;;;19.60;;
13584;SDS011;6863;48.402;9.994;2024-03-08T07:25:12;31.23;;;20.47;;
13584;SDS011;6863;48.402;9.994;2024-03-08T07:27:49;30.17;;;19.13;;
13584;SDS011;6863;48.402;9.994;2024-03-08T07:30:16;27.17;;;18.87;;
13584;SDS011;6863;48.402;9.994;2024-03-08T07:33:02;32.33;;;19.23;;
13584;SDS011;6863;48.402;9.994;2024-03-08T07:35:28;27.87;;;20.90;;
13584;SDS011;6863;48.402;9.994;2024-03-08T07:37:54;26.73;;;18.90;;
13584;SDS011;6863;48.402;9.994;2024-03-08T07:40:20;29.40;;;20.00;;
13584;SDS011;6863;48.402;9.994;2024-03-08T07:42:46;28.53;;;19.97;;
13584;SDS011;6863;48.402;9.994;2024-03-08T07:45:12;25.83;;;19.50;;
13584;SDS011;6863;48.402;9.994;2024-03-08T07:47:38;26.87;;;19.90;;
13584;SDS011;6863;48.402;9.994;2024-03-08T07:50:03;27.43;;;19.17;;
13584;SDS011;6863;48.402;9.994;2024-03-08T07:52:29;26.90;;;19.40;;
13584;SDS011;6863;48.402;9.994;2024-03-08T07:54:55;25.83;;;19.40;;
13584;SDS011;6863;48.402;9.994;2024-03-08T07:57:21;28.47;;;20.43;;
13584;SDS011;6863;48.402;9.994;2024-03-08T07:59:46;27.43;;;19.40;;
13584;SDS011;6863;48.402;9.994;2024-03-08T08:02:12;25.70;;;19.07;;
13584;SDS011;6863;48.402;9.994;2024-03-08T08:04:38;25.57;;;19.03;;
13584;SDS011;6863;48.402;9.994;2024-03-08T08:07:03;25.00;;;19.37;;
13584;SDS011;6863;48.402;9.994;2024-03-08T08:09:29;25.97;;;19.90;;
13584;SDS011;6863;48.402;9.994;2024-03-08T08:11:59;25.63;;;18.63;;
13584;SDS011;6863;48.402;9.994;2024-03-08T08:14:27;28.43;;;20.40;;
13584;SDS011;6863;48.402;9.994;2024-03-08T08:16:54;27.27;;;18.50;;
13584;SDS011;6863;48.402;9.994;2024-03-08T08:19:20;28.00;;;18.63;;
13584;SDS011;6863;48.402;9.994;2024-03-08T08:21:46;24.30;;;18.43;;
13584;SDS011;6863;48.402;9.994;2024-03-08T08:24:12;28.27;;;19.67;;
13584;SDS011;6863;48.402;9.994;2024-03-08T08:26:37;27.10;;;19.93;;
13584;SDS011;6863;48.402;9.994;2024-03-08T08:29:03;26.07;;;19.63;;
13584;SDS011;6863;48.402;9.994;2024-03-08T08:31:31;25.67;;;19.33;;
13584;SDS011;6863;48.402;9.994;2024-03-08T08:33:58;23.53;;;18.03;;
13584;SDS011;6863;48.402;9.994;2024-03-08T08:36:24;22.50;;;17.43;;
13584;SDS011;6863;48.402;9.994;2024-03-08T08:38:49;27.37;;;18.83;;
13584;SDS011;6863;48.402;9.994;2024-03-08T08:41:15;25.17;;;18.03;;
13584;SDS011;6863;48.402;9.994;2024-03-08T08:43:42;24.00;;;17.40;;
13584;SDS011;6863;48.402;9.994;2024-03-08T08:46:11;23.77;;;18.13;;
13584;SDS011;6863;48.402;9.994;2024-03-08T08:48:39;21.57;;;17.60;;
13584;SDS011;6863;48.402;9.994;2024-03-08T08:51:10;22.97;;;17.47;;
13584;SDS011;6863;48.402;9.994;2024-03-08T08:53:39;21.60;;;17.17;;
13584;SDS011;6863;48.402;9.994;2024-03-08T08:56:11;24.57;;;17.60;;
13584;SDS011;6863;48.402;9.994;2024-03-08T08:58:40;21.50;;;17.10;;
13584;SDS011;6863;48.402;9.994;2024-03-08T09:01:09;27.80;;;19.17;;
13584;SDS011;6863;48.402;9.994;2024-03-08T09:03:35;21.53;;;16.53;;
13584;SDS011;6863;48.402;9.994;2024-03-08T09:06:02;23.57;;;17.37;;
13584;SDS011;6863;48.402;9.994;2024-03-08T09:08:29;24.53;;;18.33;;
13584;SDS011;6863;48.402;9.994;2024-03-08T09:10:54;25.40;;;18.43;;
13584;SDS011;6863;48.402;9.994;2024-03-08T09:13:20;19.10;;;15.53;;
13584;SDS011;6863;48.402;9.994;2024-03-08T09:15:45;23.43;;;17.10;;
13584;SDS011;6863;48.402;9.994;2024-03-08T09:18:11;27.70;;;18.80;;
13584;SDS011;6863;48.402;9.994;2024-03-08T09:20:37;23.33;;;17.77;;
13584;SDS011;6863;48.402;9.994;2024-03-08T09:23:02;23.00;;;19.00;;
13584;SDS011;6863;48.402;9.994;2024-03-08T09:25:29;22.90;;;18.07;;
13584;SDS011;6863;48.402;9.994;2024-03-08T09:27:54;24.70;;;18.90;;
13584;SDS011;6863;48.402;9.994;2024-03-08T09:30:20;24.80;;;19.30;;
13584;SDS011;6863;48.402;9.994;2024-03-08T09:32:46;23.60;;;18.47;;
13584;SDS011;6863;48.402;9.994;2024-03-08T09:35:12;25.87;;;19.07;;
13584;SDS011;6863;48.402;9.994;2024-03-08T09:37:38;23.57;;;17.80;;
13584;SDS011;6863;48.402;9.994;2024-03-08T09:40:03;24.80;;;17.40;;
13584;SDS011;6863;48.402;9.994;2024-03-08T09:42:34;24.50;;;17.83;;
13584;SDS011;6863;48.402;9.994;2024-03-08T09:45:04;26.40;;;19.70;;
13584;SDS011;6863;48.402;9.994;2024-03-08T09:47:35;27.40;;;19.97;;
13584;SDS011;6863;48.402;9.994;2024-03-08T09:50:05;27.77;;;20.23;;
13584;SDS011;6863;48.402;9.994;2024-03-08T09:52:34;25.67;;;19.17;;
13584;SDS011;6863;48.402;9.994;2024-03-08T09:55:09;29.80;;;19.87;;
13584;SDS011;6863;48.402;9.994;2024-03-08T09:57:36;25.57;;;17.97;;
13584;SDS011;6863;48.402;9.994;2024-03-08T10:00:03;24.40;;;17.83;;
13584;SDS011;6863;48.402;9.994;2024-03-08T10:02:45;23.50;;;17.40;;
13584;SDS011;6863;48.402;9.994;2024-03-08T10:05:11;22.80;;;18.10;;
13584;SDS011;6863;48.402;9.994;2024-03-08T10:07:37;22.50;;;17.70;;
13584;SDS011;6863;48.402;9.994;2024-03-08T10:10:03;22.97;;;17.33;;
13584;SDS011;6863;48.402;9.994;2024-03-08T10:12:29;22.07;;;17.00;;
13584;SDS011;6863;48.402;9.994;2024-03-08T10:14:57;26.53;;;20.40;;
13584;SDS011;6863;48.402;9.994;2024-03-08T10:17:24;25.10;;;18.13;;
13584;SDS011;6863;48.402;9.994;2024-03-08T10:19:50;22.47;;;16.77;;
13584;SDS011;6863;48.402;9.994;2024-03-08T10:22:19;22.63;;;17.20;;
13584;SDS011;6863;48.402;9.994;2024-03-08T10:24:48;24.27;;;18.93;;
13584;SDS011;6863;48.402;9.994;2024-03-08T10:27:16;22.47;;;17.93;;
13584;SDS011;6863;48.402;9.994;2024-03-08T10:29:42;23.30;;;17.63;;
13584;SDS011;6863;48.402;9.994;2024-03-08T10:32:09;24.73;;;18.60;;
13584;SDS011;6863;48.402;9.994;2024-03-08T10:34:35;23.20;;;17.77;;
13584;SDS011;6863;48.402;9.994;2024-03-08T10:37:03;24.87;;;19.03;;
13584;SDS011;6863;48.402;9.994;2024-03-08T10:39:34;23.70;;;18.97;;
13584;SDS011;6863;48.402;9.994;2024-03-08T10:42:02;25.90;;;18.53;;
13584;SDS011;6863;48.402;9.994;2024-03-08T10:46:59;25.80;;;19.13;;
13584;SDS011;6863;48.402;9.994;2024-03-08T10:49:27;27.00;;;20.10;;
13584;SDS011;6863;48.402;9.994;2024-03-08T10:51:59;25.13;;;18.33;;
13584;SDS011;6863;48.402;9.994;2024-03-08T10:54:28;22.90;;;18.33;;
13584;SDS011;6863;48.402;9.994;2024-03-08T10:56:56;25.13;;;19.10;;
13584;SDS011;6863;48.402;9.994;2024-03-08T10:59:23;24.80;;;19.67;;
13584;SDS011;6863;48.402;9.994;2024-03-08T11:01:52;23.23;;;18.70;;
13584;SDS011;6863;48.402;9.994;2024-03-08T11:04:18;25.10;;;18.40;;
13584;SDS011;6863;48.402;9.994;2024-03-08T11:06:48;25.37;;;19.50;;
13584;SDS011;6863;48.402;9.994;2024-03-08T11:09:27;25.13;;;18.23;;
13584;SDS011;6863;48.402;9.994;2024-03-08T11:12:18;23.37;;;18.20;;
13584;SDS011;6863;48.402;9.994;2024-03-08T11:14:54;22.20;;;18.23;;
13584;SDS011;6863;48.402;9.994;2024-03-08T11:20:02;23.63;;;18.50;;
13584;SDS011;6863;48.402;9.994;2024-03-08T11:22:33;26.30;;;21.33;;
13584;SDS011;6863;48.402;9.994;2024-03-08T11:24:59;22.27;;;19.57;;
13584;SDS011;6863;48.402;9.994;2024-03-08T11:27:33;23.57;;;19.17;;
13584;SDS011;6863;48.402;9.994;2024-03-08T11:30:02;22.73;;;18.93;;
13584;SDS011;6863;48.402;9.994;2024-03-08T11:32:36;24.23;;;19.87;;
13584;SDS011;6863;48.402;9.994;2024-03-08T11:35:05;24.53;;;18.70;;
13584;SDS011;6863;48.402;9.994;2024-03-08T11:37:33;20.70;;;17.10;;
13584;SDS011;6863;48.402;9.994;2024-03-08T11:40:02;21.53;;;17.27;;
13584;SDS011;6863;48.402;9.994;2024-03-08T11:42:39;18.57;;;16.57;;
13584;SDS011;6863;48.402;9.994;2024-03-08T11:45:09;19.90;;;17.80;;
13584;SDS011;6863;48.402;9.994;2024-03-08T11:47:37;20.60;;;17.03;;
13584;SDS011;6863;48.402;9.994;2024-03-08T11:50:05;19.40;;;16.90;;
13584;SDS011;6863;48.402;9.994;2024-03-08T11:52:35;20.47;;;18.13;;
13584;SDS011;6863;48.402;9.994;2024-03-08T11:55:01;19.97;;;15.93;;
13584;SDS011;6863;48.402;9.994;2024-03-08T11:57:28;19.33;;;17.23;;
13584;SDS011;6863;48.402;9.994;2024-03-08T11:59:55;22.90;;;17.47;;
13584;SDS011;6863;48.402;9.994;2024-03-08T12:02:31;18.73;;;16.80;;
13584;SDS011;6863;48.402;9.994;2024-03-08T12:04:57;18.90;;;16.87;;
13584;SDS011;6863;48.402;9.994;2024-03-08T12:07:28;19.23;;;17.33;;
13584;SDS011;6863;48.402;9.994;2024-03-08T12:12:43;18.05;;;16.25;;
13584;SDS011;6863;48.402;9.994;2024-03-08T12:15:13;19.40;;;17.40;;
13584;SDS011;6863;48.402;9.994;2024-03-08T12:17:43;20.35;;;18.25;;
13584;SDS011;6863;48.402;9.994;2024-03-08T12:20:16;20.58;;;18.38;;
13584;SDS011;6863;48.402;9.994;2024-03-08T12:22:43;20.33;;;18.33;;
13584;SDS011;6863;48.402;9.994;2024-03-08T12:25:12;20.58;;;18.60;;
13584;SDS011;6863;48.402;9.994;2024-03-08T12:27:39;19.92;;;17.90;;
13584;SDS011;6863;48.402;9.994;2024-03-08T12:32:57;20.77;;;18.65;;
13584;SDS011;6863;48.402;9.994;2024-03-08T12:35:25;20.60;;;18.55;;
13584;SDS011;6863;48.402;9.994;2024-03-08T12:37:56;20.58;;;18.55;;
13584;SDS011;6863;48.402;9.994;2024-03-08T12:40:26;21.08;;;18.92;;
13584;SDS011;6863;48.402;9.994;2024-03-08T12:42:53;19.75;;;17.85;;
13584;SDS011;6863;48.402;9.994;2024-03-08T12:45:23;21.77;;;18.88;;
13584;SDS011;6863;48.402;9.994;2024-03-08T12:47:52;21.17;;;19.08;;
13584;SDS011;6863;48.402;9.994;2024-03-08T12:50:18;20.35;;;18.45;;
13584;SDS011;6863;48.402;9.994;2024-03-08T12:52:48;19.60;;;17.60;;
13584;SDS011;6863;48.402;9.994;2024-03-08T12:55:14;20.88;;;18.85;;
13584;SDS011;6863;48.402;9.994;2024-03-08T12:57:41;20.48;;;18.52;;
13584;SDS011;6863;48.402;9.994;2024-03-08T13:00:07;19.75;;;17.92;;
13584;SDS011;6863;48.402;9.994;2024-03-08T13:02:46;20.50;;;18.60;;
13584;SDS011;6863;48.402;9.994;2024-03-08T13:05:12;20.63;;;18.73;;
13584;SDS011;6863;48.402;9.994;2024-03-08T13:07:39;20.80;;;18.73;;
13584;SDS011;6863;48.402;9.994;2024-03-08T13:10:06;21.52;;;19.42;;
13584;SDS011;6863;48.402;9.994;2024-03-08T13:12:33;21.25;;;19.35;;
13584;SDS011;6863;48.402;9.994;2024-03-08T13:15:03;20.65;;;18.75;;
13584;SDS011;6863;48.402;9.994;2024-03-08T13:17:30;20.98;;;18.98;;
13584;SDS011;6863;48.402;9.994;2024-03-08T13:19:55;22.13;;;19.98;;
13584;SDS011;6863;48.402;9.994;2024-03-08T13:22:22;20.58;;;18.60;;
13584;SDS011;6863;48.402;9.994;2024-03-08T13:24:49;20.88;;;19.05;;
13584;SDS011;6863;48.402;9.994;2024-03-08T13:27:17;21.30;;;19.23;;
13584;SDS011;6863;48.402;9.994;2024-03-08T13:29:49;22.33;;;18.35;;
13584;SDS011;6863;48.402;9.994;2024-03-08T13:32:15;18.90;;;17.20;;
13584;SDS011;6863;48.402;9.994;2024-03-08T13:34:42;20.67;;;18.67;;
13584;SDS011;6863;48.402;9.994;2024-03-08T13:37:10;20.83;;;18.73;;
13584;SDS011;6863;48.402;9.994;2024-03-08T13:39:36;18.88;;;17.05;;
13584;SDS011;6863;48.402;9.994;2024-03-08T13:42:08;20.63;;;18.63;;
13584;SDS011;6863;48.402;9.994;2024-03-08T13:44:44;19.58;;;17.67;;
13584;SDS011;6863;48.402;9.994;2024-03-08T13:47:16;21.83;;;19.75;;
13584;SDS011;6863;48.402;9.994;2024-03-08T13:49:42;20.55;;;18.75;;
13584;SDS011;6863;48.402;9.994;2024-03-08T13:52:09;18.98;;;17.17;;
13584;SDS011;6863;48.402;9.994;2024-03-08T13:54:35;18.92;;;17.10;;
13584;SDS011;6863;48.402;9.994;2024-03-08T13:57:01;19.83;;;18.00;;
13584;SDS011;6863;48.402;9.994;2024-03-08T13:59:32;20.75;;;18.83;;
13584;SDS011;6863;48.402;9.994;2024-03-08T14:02:01;19.95;;;18.05;;
13584;SDS011;6863;48.402;9.994;2024-03-08T14:04:30;20.50;;;18.45;;
13584;SDS011;6863;48.402;9.994;2024-03-08T14:06:56;19.70;;;17.80;;
13584;SDS011;6863;48.402;9.994;2024-03-08T14:09:23;20.02;;;17.98;;
13584;SDS011;6863;48.402;9.994;2024-03-08T14:11:50;19.85;;;17.95;;
13584;SDS011;6863;48.402;9.994;2024-03-08T14:14:18;19.58;;;17.52;;
13584;SDS011;6863;48.402;9.994;2024-03-08T14:16:45;19.60;;;17.77;;
13584;SDS011;6863;48.402;9.994;2024-03-08T14:19:12;19.77;;;17.90;;
13584;SDS011;6863;48.402;9.994;2024-03-08T14:21:40;19.63;;;17.70;;
13584;SDS011;6863;48.402;9.994;2024-03-08T14:24:07;19.20;;;17.40;;
13584;SDS011;6863;48.402;9.994;2024-03-08T14:26:33;18.90;;;17.10;;
13584;SDS011;6863;48.402;9.994;2024-03-08T14:28:59;17.27;;;15.77;;
13584;SDS011;6863;48.402;9.994;2024-03-08T14:31:25;17.88;;;16.17;;
13584;SDS011;6863;48.402;9.994;2024-03-08T14:33:53;18.65;;;16.75;;
13584;SDS011;6863;48.402;9.994;2024-03-08T14:36:19;18.05;;;16.25;;
13584;SDS011;6863;48.402;9.994;2024-03-08T14:38:46;17.65;;;16.05;;
13584;SDS011;6863;48.402;9.994;2024-03-08T14:41:14;17.27;;;15.60;;
13584;SDS011;6863;48.402;9.994;2024-03-08T14:43:42;17.50;;;15.80;;
13584;SDS011;6863;48.402;9.994;2024-03-08T14:46:09;16.63;;;15.13;;